Time;durP1;ratioP1;P1;durP2;ratioP2;P2;SDS_P1;SDS_P2;PMS_P1;PMS_P2;Temp;Humidity;BMP_temperature;BMP_pressure;BME280_temperature;BME280_humidity;BME280_pressure;Samples;Min_cycle;Max_cycle;Signal;HPM_P1;HPM_P2
2022/05/27 00:00:56;;;;;;;12.77;1.90;;;;;;;13.44;100.00;101889.78;4993649;28;20046;-30
2022/05/27 00:03:24;;;;;;;12.38;2.10;;;;;;;13.39;100.00;101893.47;4993483;28;20591;-28
2022/05/27 00:05:52;;;;;;;10.32;2.00;;;;;;;13.37;100.00;101895.75;4992602;28;20053;-28
2022/05/27 00:08:22;;;;;;;12.30;2.30;;;;;;;13.35;100.00;101892.38;4993311;28;20054;-28
2022/05/27 00:10:50;;;;;;;12.85;2.17;;;;;;;13.32;100.00;101898.59;4992231;28;20057;-28
2022/05/27 00:13:17;;;;;;;13.10;1.92;;;;;;;13.28;100.00;101897.47;4992481;28;20048;-27
2022/05/27 00:15:45;;;;;;;11.82;2.42;;;;;;;13.28;100.00;101900.28;4993156;28;20049;-28
2022/05/27 00:18:13;;;;;;;12.20;2.15;;;;;;;13.27;100.00;101898.63;4992329;28;20042;-28
2022/05/27 00:20:41;;;;;;;10.30;1.80;;;;;;;13.26;100.00;101893.28;4991944;28;20046;-28
2022/05/27 00:23:10;;;;;;;15.35;2.45;;;;;;;13.24;100.00;101889.94;4992940;28;20038;-28
2022/05/27 00:25:39;;;;;;;11.32;2.42;;;;;;;13.22;100.00;101897.81;4992111;28;20038;-29
2022/05/27 00:28:07;;;;;;;8.68;1.77;;;;;;;13.22;100.00;101897.81;4993140;28;20042;-28
2022/05/27 00:30:35;;;;;;;14.23;2.00;;;;;;;13.20;100.00;101906.50;4992991;28;20042;-28
2022/05/27 00:33:06;;;;;;;13.93;2.80;;;;;;;13.19;100.00;101909.63;4981260;28;20049;-28
2022/05/27 00:35:33;;;;;;;14.85;2.45;;;;;;;13.16;100.00;101915.81;4992796;28;20073;-30
2022/05/27 00:38:01;;;;;;;11.43;2.42;;;;;;;13.14;100.00;101907.66;4992658;28;20044;-28
2022/05/27 00:40:36;;;;;;;13.65;2.42;;;;;;;13.14;100.00;101906.81;4992138;28;20054;-28
2022/05/27 00:43:06;;;;;;;12.93;2.45;;;;;;;13.10;100.00;101903.75;4990282;28;20050;-29
2022/05/27 00:45:36;;;;;;;12.90;2.20;;;;;;;13.09;100.00;101907.69;4991736;28;20404;-29
2022/05/27 00:48:08;;;;;;;15.43;2.28;;;;;;;13.06;100.00;101906.28;4992227;28;20080;-26
2022/05/27 00:50:40;;;;;;;13.50;2.22;;;;;;;13.04;100.00;101902.09;4992391;28;20093;-27
2022/05/27 00:53:10;;;;;;;11.98;2.22;;;;;;;13.00;100.00;101904.66;4992821;28;20054;-27
2022/05/27 00:55:44;;;;;;;12.55;2.35;;;;;;;12.97;100.00;101901.63;4992582;28;20060;-26
2022/05/27 00:58:19;;;;;;;13.77;2.25;;;;;;;12.94;100.00;101902.19;4992590;28;20045;-27
2022/05/27 01:00:47;;;;;;;12.82;2.45;;;;;;;12.88;100.00;101898.56;4991533;28;20042;-26
2022/05/27 01:03:17;;;;;;;12.25;2.13;;;;;;;12.87;100.00;101891.28;4991268;28;20073;-27
2022/05/27 01:05:46;;;;;;;16.88;2.67;;;;;;;12.86;100.00;101905.59;4992196;28;20081;-27
2022/05/27 01:08:17;;;;;;;12.23;1.90;;;;;;;12.85;100.00;101904.75;4991735;28;20519;-27
2022/05/27 01:10:54;;;;;;;11.02;2.05;;;;;;;12.84;100.00;101897.47;4992218;28;20110;-27
2022/05/27 01:13:34;;;;;;;13.25;1.80;;;;;;;12.82;100.00;101905.31;4988839;28;20046;-27
2022/05/27 01:16:11;;;;;;;12.48;2.60;;;;;;;12.79;100.00;101903.09;4987827;28;20533;-27
2022/05/27 01:22:00;;;;;;;14.57;2.80;;;;;;;12.75;100.00;101902.03;4990914;28;20076;-28
2022/05/27 01:24:51;;;;;;;13.00;2.40;;;;;;;12.74;100.00;101911.53;4989910;28;20065;-27
2022/05/27 01:27:46;;;;;;;16.02;2.42;;;;;;;12.72;100.00;101913.78;4992104;28;20046;-27
2022/05/27 01:30:24;;;;;;;13.88;2.90;;;;;;;12.70;100.00;101916.03;4982650;28;20038;-27
2022/05/27 01:33:03;;;;;;;11.85;1.90;;;;;;;12.70;100.00;101916.03;4982748;28;20047;-27
2022/05/27 01:35:39;;;;;;;11.38;2.30;;;;;;;12.70;100.00;101919.69;4991040;28;20069;-28
2022/05/27 01:38:15;;;;;;;10.20;1.80;;;;;;;12.70;100.00;101919.69;4991786;28;20417;-27
2022/05/27 01:40:51;;;;;;;13.55;2.25;;;;;;;12.70;100.00;101916.03;4991688;28;20049;-27
2022/05/27 01:43:23;;;;;;;14.75;2.40;;;;;;;12.69;100.00;101928.38;4990926;28;20392;-28
2022/05/27 01:45:58;;;;;;;14.10;2.42;;;;;;;12.69;100.00;101923.59;4991486;28;20472;-27
2022/05/27 01:48:30;;;;;;;15.63;2.38;;;;;;;12.67;100.00;101927.81;4991663;28;20058;-27
2022/05/27 01:51:06;;;;;;;11.50;2.15;;;;;;;12.67;100.00;101920.25;4990716;28;20050;-27
2022/05/27 01:53:41;;;;;;;14.50;2.25;;;;;;;12.68;100.00;101919.13;4992008;28;20061;-27
2022/05/27 01:56:15;;;;;;;12.80;2.20;;;;;;;12.69;100.00;101923.59;4991549;28;20046;-28
2022/05/27 01:58:47;;;;;;;11.00;1.70;;;;;;;12.69;100.00;101911.56;4990987;28;20046;-27
2022/05/27 02:01:19;;;;;;;;;;;;;;;12.65;100.00;101910.47;4991826;28;20097;-29
2022/05/27 02:03:49;;;;;;;;;;;;;;;12.57;100.00;101920.31;4980985;28;19922;-27
2022/05/27 02:06:18;;;;;;;;;;;;;;;12.55;100.00;101918.91;4991909;28;19922;-30
2022/05/27 02:08:50;;;;;;;;;;;;;;;12.53;100.00;101918.38;4991797;28;19949;-27
2022/05/27 02:11:19;;;;;;;;;;;;;;;12.50;100.00;101916.13;4991437;28;19937;-28
2022/05/27 02:13:51;;;;;;;;;;;;;;;12.49;100.00;101915.28;4991428;28;20402;-27
2022/05/27 02:16:22;;;;;;;;;;;;;;;12.48;100.00;101913.63;4991791;28;20968;-28
2022/05/27 02:18:51;;;;;;;;;;;;;;;12.48;100.00;101916.41;4990948;28;19922;-28
2022/05/27 02:21:22;;;;;;;;;;;;;;;12.48;100.00;101910.81;4991727;28;20303;-28
2022/05/27 02:23:52;;;;;;;;;;;;;;;12.46;100.00;101899.06;4990965;28;19921;-28
2022/05/27 02:26:23;;;;;;;;;;;;;;;12.46;100.00;101912.22;4989034;28;19922;-27
2022/05/27 02:28:53;;;;;;;;;;;;;;;12.45;100.00;101911.38;4989821;28;20283;-27
2022/05/27 02:31:24;;;;;;;;;;;;;;;12.46;100.00;101917.81;4990081;28;19926;-28
2022/05/27 02:36:44;;;;;;;;;;;;;;;12.42;100.00;101929.59;4990227;28;19921;-27
2022/05/27 02:39:11;;;;;;;;;;;;;;;12.44;100.00;101929.31;4990308;28;19948;-27
2022/05/27 02:41:42;;;;;;;;;;;;;;;12.45;100.00;101925.38;4991892;28;19922;-26
2022/05/27 02:44:18;;;;;;;;;;;;;;;12.46;100.00;101924.25;4991420;28;19937;-27
2022/05/27 02:46:50;;;;;;;;;;;;;;;12.46;100.00;101921.47;4990642;28;19928;-29
2022/05/27 02:49:22;;;;;;;;;;;;;;;12.43;100.00;101916.44;4990876;28;20309;-26
2022/05/27 02:51:55;;;;;;;;;;;;;;;12.43;100.00;101922.03;4991275;28;19921;-27
2022/05/27 02:54:25;;;;;;;;;;;;;;;12.42;100.00;101924.00;4990724;28;19932;-28
2022/05/27 02:56:55;;;;;;;;;;;;;;;12.40;100.00;101923.44;4991542;28;20334;-28
2022/05/27 02:59:23;;;;;;;;;;;;;;;12.39;100.00;101923.72;4991337;28;19933;-26
2022/05/27 03:01:52;;;;;;;;;;;;;;;12.35;100.00;101923.47;4989314;28;20414;-26
2022/05/27 03:04:20;;;;;;;;;;;;;;;12.37;100.00;101926.81;4991237;28;19925;-26
2022/05/27 03:06:56;;;;;;;;;;;;;;;12.38;100.00;101922.06;4991066;28;19929;-26
2022/05/27 03:09:28;;;;;;;;;;;;;;;12.39;100.00;101920.91;5006701;28;19925;-27
2022/05/27 03:12:05;;;;;;;;;;;;;;;12.37;100.00;101921.22;4991187;28;19929;-26
2022/05/27 03:14:51;;;;;;;;;;;;;;;12.36;100.00;101913.97;4989895;28;19933;-26
2022/05/27 03:17:34;;;;;;;;;;;;;;;12.36;100.00;101922.34;4989961;28;19928;-27
2022/05/27 03:20:06;;;;;;;;;;;;;;;12.36;100.00;101913.13;4990768;28;19945;-27
2022/05/27 03:22:42;;;;;;;;;;;;;;;12.34;100.00;101918.16;4989846;28;19926;-28
2022/05/27 03:25:15;;;;;;;;;;;;;;;12.32;100.00;101920.41;4985527;28;19922;-27
2022/05/27 03:27:44;;;;;;;;;;;;;;;12.30;100.00;101920.69;4992877;28;19941;-27
2022/05/27 03:30:15;;;;;;;;;;;;;;;12.28;100.00;101928.53;4991206;28;19949;-27
2022/05/27 03:32:48;;;;;;;;;;;;;;;12.28;100.00;101919.28;4992158;28;19929;-27
2022/05/27 03:35:18;;;;;;;;;;;;;;;12.28;100.00;101927.69;4993939;28;19929;-27
2022/05/27 03:37:49;;;;;;;;;;;;;;;12.29;100.00;101919.00;4994545;28;20334;-26
2022/05/27 03:40:20;;;;;;;;;;;;;;;12.29;100.00;101921.81;4994457;28;19921;-26
2022/05/27 03:42:49;;;;;;;;;;;;;;;12.27;100.00;101920.41;4994122;28;19933;-27
2022/05/27 03:45:17;;;;;;;;;;;;;;;12.23;100.00;101908.09;4993996;28;19928;-27
2022/05/27 03:47:47;;;;;;;;;;;;;;;12.18;100.00;101911.78;4993979;28;20335;-26
2022/05/27 03:50:16;;;;;;;;;;;;;;;12.13;100.00;101925.78;4993348;28;19930;-27
2022/05/27 03:52:45;;;;;;;;;;;;;;;12.12;100.00;101914.88;4994137;28;19929;-26
2022/05/27 03:55:14;;;;;;;;;;;;;;;12.11;100.00;101908.44;4994035;28;20391;-27
2022/05/27 03:57:42;;;;;;;;;;;;;;;12.13;100.00;101922.13;4993211;28;20375;-26
2022/05/27 04:00:11;;;;;;;;;;;;;;;12.17;100.00;101923.25;4993829;28;19922;-27
2022/05/27 04:02:39;;;;;;;;;;;;;;;12.23;100.00;101936.09;4994454;28;19957;-26
2022/05/27 04:05:09;;;;;;;;;;;;;;;12.27;100.00;101923.22;4993389;28;20303;-27
2022/05/27 04:07:36;;;;;;;;;;;;;;;12.29;100.00;101926.56;4993826;28;19922;-27
2022/05/27 04:10:04;;;;;;;;;;;;;;;12.30;100.00;101919.84;4994258;28;19930;-26
2022/05/27 04:12:32;;;;;;;;;;;;;;;12.31;100.00;101921.53;4993274;28;19926;-26
2022/05/27 04:14:59;;;;;;;;;;;;;;;12.32;100.00;101923.19;4993919;28;19988;-26
2022/05/27 04:17:30;;;;;;;;;;;;;;;12.34;100.00;101920.97;4992594;28;19937;-27
2022/05/27 04:19:59;;;;;;;;;;;;;;;12.31;100.00;101927.13;4993468;28;19932;-26
2022/05/27 04:22:28;;;;;;;;;;;;;;;12.25;100.00;101917.91;4993565;28;19929;-26
2022/05/27 04:24:58;;;;;;;;;;;;;;;12.21;100.00;101929.94;4992568;28;19925;-26
2022/05/27 04:27:27;;;;;;;;;;;;;;;12.17;100.00;101931.66;4993325;28;19921;-27
2022/05/27 04:29:54;;;;;;;;;;;;;;;12.20;100.00;101936.66;4993332;28;19925;-28
2022/05/27 04:32:22;;;;;;;;;;;;;;;12.21;100.00;101938.34;4992722;28;19922;-31
2022/05/27 04:34:50;;;;;;;;;;;;;;;12.19;100.00;101946.19;4993473;28;19928;-27
2022/05/27 04:37:19;;;;;;;;;;;;;;;12.16;100.00;101938.38;4993099;28;20247;-28
2022/05/27 04:39:48;;;;;;;;;;;;;;;12.13;100.00;101941.72;4992261;28;19973;-26
2022/05/27 04:42:16;;;;;;;;;;;;;;;12.08;100.00;101942.56;4993046;28;20066;-27
2022/05/27 04:44:44;;;;;;;;;;;;;;;12.05;100.00;101943.97;4993240;28;19976;-27
2022/05/27 04:47:12;;;;;;;;;;;;;;;12.02;100.00;101944.53;4992171;28;20364;-27
2022/05/27 04:49:54;;;;;;;;;;;;;;;12.01;100.00;101954.03;4993110;28;19925;-28
2022/05/27 04:52:23;;;;;;;;;;;;;;;12.00;100.00;101969.16;4992203;28;19922;-27
2022/05/27 04:54:53;;;;;;;;;;;;;;;12.00;100.00;101959.91;4993040;28;19932;-27
2022/05/27 04:57:22;;;;;;;;;;;;;;;12.01;100.00;101950.41;4993101;28;19991;-27
2022/05/27 04:59:50;;;;;;;;;;;;;;;12.00;100.00;101966.34;4991975;28;20367;-27
2022/05/27 05:02:18;;;;;;;;;;;;;;;12.02;100.00;101957.69;4992900;28;19930;-29
2022/05/27 05:04:46;;;;;;;;;;;;;;;12.01;100.00;101962.44;4972634;28;19922;-26
2022/05/27 05:07:14;;;;;;;;;;;;;;;12.02;100.00;101968.88;4991949;28;19957;-27
2022/05/27 05:09:42;;;;;;;;;;;;;;;12.02;100.00;101969.72;4992303;28;19921;-27
2022/05/27 05:12:12;;;;;;;;;;;;;;;12.04;100.00;101975.88;4992859;28;20294;-28
2022/05/27 05:14:40;;;;;;;;;;;;;;;12.04;100.00;101970.28;4988555;28;19921;-26
2022/05/27 05:17:08;;;;;;;;;;;;;;;12.05;100.00;101974.75;4992084;28;19968;-27
2022/05/27 05:19:35;;;;;;;;;;;;;;;12.06;100.00;101978.38;4992604;28;19952;-27
2022/05/27 05:22:03;;;;;;;;;;;;;;;12.04;100.00;101984.25;4991876;28;19921;-27
2022/05/27 05:24:31;;;;;;;;;;;;;;;12.03;100.00;101974.19;4992437;28;19952;-26
2022/05/27 05:26:58;;;;;;;;;;;;;;;12.05;100.00;101982.28;4992248;28;19922;-27
2022/05/27 05:29:27;;;;;;;;;;;;;;;12.08;100.00;101982.56;4992077;28;19933;-27
2022/05/27 05:31:55;;;;;;;;;;;;;;;12.11;100.00;101985.94;4992355;28;19932;-27
2022/05/27 05:34:22;;;;;;;;;;;;;;;12.12;100.00;101982.84;4992392;28;20295;-27
2022/05/27 05:36:54;;;;;;;;;;;;;;;12.12;100.00;101996.00;4991508;28;19929;-27
2022/05/27 05:39:21;;;;;;;;;;;;;;;12.14;100.00;101993.78;4989922;28;19936;-27
2022/05/27 05:41:56;;;;;;;;;;;;;;;12.17;100.00;101994.06;4990350;28;19930;-27
2022/05/27 05:44:24;;;;;;;;;;;;;;;12.17;100.00;101993.22;4991347;28;19930;-27
2022/05/27 05:46:53;;;;;;;;;;;;;;;12.14;100.00;101994.59;4991528;28;20257;-27
2022/05/27 05:49:21;;;;;;;;;;;;;;;12.17;100.00;101993.22;4989557;28;19989;-27
2022/05/27 05:51:49;;;;;;;;;;;;;;;12.18;100.00;102001.31;4991057;28;19929;-27
2022/05/27 05:54:18;;;;;;;;;;;;;;;12.21;100.00;102011.09;4990763;28;19922;-27
2022/05/27 05:56:46;;;;;;;;;;;;;;;12.24;100.00;102016.13;4989951;28;20302;-28
2022/05/27 05:59:14;;;;;;;;;;;;;;;12.28;100.00;102018.09;4990648;28;19929;-28
2022/05/27 06:01:42;;;;;;;;;;;;;;;12.28;100.00;102020.03;4990702;28;19921;-28
2022/05/27 06:04:11;;;;;;;;;;;;;;;12.28;100.00;102015.28;4990328;28;20228;-28
2022/05/27 06:06:39;;;;;;;;;;;;;;;12.32;100.00;102021.16;4988931;28;20031;-28
2022/05/27 06:09:07;;;;;;;;;;;;;;;12.39;100.00;102018.88;4990527;28;19926;-29
2022/05/27 06:11:36;;;;;;;;;;;;;;;12.45;100.00;102026.16;4990003;28;20315;-27
2022/05/27 06:14:04;;;;;;;;;;;;;;;12.51;100.00;102022.25;4990713;28;19925;-27
2022/05/27 06:16:32;;;;;;;;;;;;;;;12.56;100.00;102019.44;4990150;28;19929;-28
2022/05/27 06:18:59;;;;;;;;;;;;;;;12.64;100.00;102010.44;4985214;28;20021;-28
2022/05/27 06:21:29;;;;;;;;;;;;;;;12.75;100.00;102020.50;4990495;28;19929;-27
2022/05/27 06:23:56;;;;;;;;;;;;;;;12.90;100.00;102018.75;4989549;28;19925;-27
2022/05/27 06:26:23;;;;;;;;;;;;;;;13.08;100.00;102027.34;4990345;28;19921;-30
2022/05/27 06:34:24;;;;;;;;;;;;;;;14.02;99.01;102030.94;4990437;28;19921;-29
2022/05/27 06:36:56;;;;;;;;;;;;;;;14.39;100.00;102029.47;4990213;28;20591;-27
2022/05/27 06:39:25;;;;;;;;;;;;;;;14.87;97.67;102029.53;4989763;28;19921;-28
2022/05/27 06:41:52;;;;;;;;;;;;;;;15.34;98.81;102035.09;4990564;28;19926;-28
2022/05/27 06:44:26;;;;;;;;;;;;;;;15.97;98.41;102033.91;4988817;28;19965;-28
2022/05/27 06:46:55;;;;;;;;;;;;;;;16.44;94.14;102035.56;4989381;28;20433;-28
2022/05/27 06:49:23;;;;;;;;;;;;;;;16.79;86.06;102036.91;4990150;28;19925;-28
2022/05/27 06:51:54;;;;;;;;;;;;;;;17.11;83.69;102044.44;4989385;28;20375;-27
2022/05/27 06:54:22;;;;;;;;;;;;;;;17.14;79.04;102044.63;4989815;28;20331;-28
2022/05/27 06:56:52;;;;;;;;;;;;;;;17.26;78.00;102046.91;4990140;28;19922;-27
2022/05/27 06:59:20;;;;;;;;;;;;;;;17.67;79.49;102046.00;4984487;28;19926;-27
2022/05/27 07:01:49;;;;;;;;;;;;;;;18.05;73.61;102050.16;4991438;28;19921;-28
2022/05/27 07:04:17;;;;;;;;;;;;;;;18.31;70.20;102039.03;4994603;28;19999;-27
2022/05/27 07:06:46;;;;;;;;;;;;;;;18.63;69.46;102046.38;4993561;28;19922;-28
2022/05/27 07:09:16;;;;;;;;;;;;;;;19.07;70.94;102058.72;4994081;28;19925;-27
2022/05/27 07:11:46;;;;;;;;;;;;;;;19.42;65.59;102051.16;4994701;28;20042;-28
2022/05/27 07:14:13;;;;;;;;;;;;;;;19.78;64.80;102053.75;4993635;28;19921;-28
2022/05/27 07:16:41;;;;;;;;;;;;;;;20.01;60.86;102055.22;4994720;28;20335;-28
2022/05/27 07:19:29;;;;;;;;;;;;;;;20.16;56.59;102062.41;4994498;28;19921;-33
2022/05/27 07:21:56;;;;;;;;;;;;;;;20.36;60.60;102060.88;4994076;28;20383;-34
2022/05/27 07:24:25;;;;;;;;;;;;;;;20.76;57.53;102062.28;4982448;28;19933;-34
2022/05/27 07:26:53;;;;;;;;;;;;;;;21.08;54.29;102062.81;4983508;28;19929;-31
2022/05/27 07:29:20;;;;;;;;;;;;;;;21.29;53.98;102069.41;4993595;28;20335;-27
2022/05/27 07:31:48;;;;;;;;;;;;;;;21.42;54.76;102056.97;4994302;28;19922;-27
2022/05/27 07:34:16;;;;;;;;;;;;;;;21.76;55.02;102043.72;4992116;28;19928;-27
2022/05/27 07:36:43;;;;;;;;;;;;;;;21.89;47.31;102053.94;4990969;28;19926;-28
2022/05/27 07:39:11;;;;;;;;;;;;;;;21.99;52.13;102047.81;4994445;28;20217;-31
2022/05/27 07:41:40;;;;;;;;;;;;;;;22.02;47.00;102058.53;4993699;28;19922;-27
2022/05/27 07:44:08;;;;;;;;;;;;;;;22.06;46.77;102070.06;4994229;28;19925;-34
2022/05/27 07:46:39;;;;;;;;;;;;;;;22.13;49.72;102048.41;4994125;28;19921;-29
2022/05/27 07:49:07;;;;;;;;;;;;;;;22.44;50.29;102061.31;4993243;28;20379;-28
2022/05/27 07:51:55;;;;;;;;;;;;;;;22.78;46.38;102063.78;4993335;28;19968;-30
2022/05/27 07:54:22;;;;;;;;;;;;;;;22.87;46.31;102064.53;5000631;28;19932;-30
2022/05/27 07:56:51;;;;;;;;;;;;;;;23.01;49.92;102073.53;4996432;28;19921;-38
2022/05/27 07:59:19;;;;;;;;;;;;;;;23.26;46.47;102068.69;4994484;28;19922;-36
2022/05/27 08:01:46;;;;;;;;;;;;;;;23.42;46.09;102063.09;4992094;28;19921;-30
2022/05/27 08:04:14;;;;;;;;;;;;;;;23.52;44.78;102067.53;4993425;28;20024;-38
2022/05/27 08:06:42;;;;;;;;;;;;;;;23.53;45.21;102072.88;4993076;28;20434;-29
2022/05/27 08:09:12;;;;;;;;;;;;;;;23.76;48.44;102078.91;4993584;28;19971;-33
2022/05/27 08:11:39;;;;;;;;;;;;;;;24.11;44.01;102070.59;4993010;28;19922;-29
2022/05/27 08:14:09;;;;;;;;;;;;;;;24.35;45.80;102075.41;4993098;28;19921;-31
2022/05/27 08:16:37;;;;;;;;;;;;;;;24.56;42.94;102072.31;4992594;28;20700;-39
2022/05/27 08:19:05;;;;;;;;;;;;;;;24.62;42.56;102079.41;4993831;28;19921;-28
2022/05/27 08:21:36;;;;;;;;;;;;;;;24.75;42.78;102077.31;4993659;28;19928;-29
2022/05/27 08:24:03;;;;;;;;;;;;;;;24.84;41.29;102080.81;4992396;28;19969;-29
2022/05/27 08:26:31;;;;;;;;;;;;;;;24.92;43.09;102082.66;4993063;28;19922;-36
2022/05/27 08:28:58;;;;;;;;;;;;;;;25.12;44.06;102089.34;4993320;28;19925;-30
2022/05/27 08:31:27;;;;;;;;;;;;;;;25.30;43.61;102082.03;4992561;28;19933;-34
2022/05/27 08:39:28;;;;;;;;;;;;;;;25.29;41.92;102086.09;4992697;28;19933;-28
2022/05/27 08:42:05;;;;;;;;;;;;;;;25.16;40.91;102081.69;4993001;28;20158;-28
2022/05/27 08:44:38;;;;;;;;;;;;;;;24.83;43.62;102096.28;4982022;28;19936;-28
2022/05/27 08:47:12;;;;;;;;;;;;;;;24.82;43.58;102101.16;4992992;28;19952;-29
2022/05/27 08:49:44;;;;;;;;;;;;;;;24.84;45.04;102098.78;4992912;28;19921;-29
2022/05/27 08:52:15;;;;;;;;;;;;;;;24.89;41.14;102101.34;4992330;28;19922;-32
2022/05/27 08:54:45;;;;;;;;;;;;;;;24.73;41.26;102097.66;4992826;28;19929;-32
2022/05/27 09:00:00;;;;;;;;;;;;;;;24.59;42.16;102100.09;4992069;28;19930;-29
2022/05/27 09:02:31;;;;;;;;;;;;;;;24.45;41.41;102102.56;4992644;28;19921;-30
2022/05/27 09:05:05;;;;;;;;;;;;;;;24.49;41.97;102107.19;4992788;28;19929;-31
2022/05/27 09:07:37;;;;;;;;;;;;;;;24.55;43.27;102104.91;4991911;28;19929;-31
2022/05/27 09:10:08;;;;;;;;;;;;;;;24.75;43.33;102114.44;4993194;28;20356;-27
2022/05/27 09:12:39;;;;;;;;;;;;;;;24.76;40.03;102114.06;4988547;28;19928;-30
2022/05/27 09:15:13;;;;;;;;;;;;;;;24.54;40.35;102109.78;4993025;28;19922;-34
2022/05/27 09:17:44;;;;;;;;;;;;;;;24.45;40.28;102117.66;4992369;28;19928;-30
2022/05/27 09:20:17;;;;;;;;;;;;;;;24.49;40.23;102112.88;4991993;28;20415;-36
2022/05/27 09:22:49;;;;;;;;;;;;;;;24.56;41.69;102120.84;4991246;28;19932;-33
2022/05/27 09:25:21;;;;;;;;;;;;;;;24.65;41.26;102119.47;4991376;28;20243;-28
2022/05/27 09:27:57;;;;;;;;;;;;;;;24.78;42.75;102123.06;4991844;28;19929;-37
2022/05/27 09:30:24;;;;;;;;;;;;;;;24.56;41.08;102120.84;4991034;28;19933;-28
2022/05/27 09:32:59;;;;;;;;;;;;;;;24.47;41.35;102123.84;4990441;28;19922;-29
2022/05/27 09:35:29;;;;;;;;;;;;;;;24.28;40.69;102133.06;4990413;28;19922;-30
2022/05/27 09:38:16;;;;;;;;;;;;;;;24.32;42.62;102151.13;4991092;28;20032;-29
2022/05/27 09:40:46;;;;;;;;;;;;;;;24.31;41.78;102137.22;4991343;28;19929;-28
2022/05/27 09:43:16;;;;;;;;;;;;;;;24.13;39.80;102153.78;4991199;28;19987;-29
2022/05/27 09:45:44;;;;;;;;;;;;;;;23.60;37.67;102132.09;4988794;28;19922;-28
2022/05/27 09:48:13;;;;;;;;;;;;;;;23.17;41.93;102144.06;4989868;28;19929;-29
2022/05/27 09:50:42;;;;;;;;;;;;;;;22.66;42.63;102140.56;4991368;28;20383;-29
2022/05/27 09:53:14;;;;;;;;;;;;;;;22.25;42.13;102133.75;4991702;28;19922;-35
2022/05/27 09:55:44;;;;;;;;;;;;;;;21.93;41.63;102143.03;4991080;28;19929;-32
2022/05/27 09:58:11;;;;;;;;;;;;;;;21.57;43.69;102141.59;4991786;28;19933;-31
2022/05/27 10:00:41;;;;;;;;;;;;;;;21.33;42.93;102147.06;4991520;28;19980;-31
2022/05/27 10:03:22;;;;;;;;;;;;;;;21.36;46.64;102162.59;4991176;28;19925;-27
2022/05/27 10:05:51;;;;;;;;;;;;;;;21.46;46.46;102160.19;4991723;28;19931;-28
2022/05/27 10:08:26;;;;;;;;;;;;;;;21.39;44.56;102167.56;4991508;28;19922;-29
2022/05/27 10:11:05;;;;;;;;;;;;;;;21.46;45.94;102165.88;4990660;28;19926;-29
2022/05/27 10:13:34;;;;;;;;;;;;;;;21.77;44.94;102164.72;4991762;28;19922;-32
2022/05/27 10:16:08;;;;;;;;;;;;;;;21.82;44.34;102167.34;4990614;28;20455;-29
2022/05/27 10:18:37;;;;;;;;;;;;;;;21.73;44.13;102160.88;4991633;28;19964;-31
2022/05/27 10:21:10;;;;;;;;;;;;;;;21.76;43.79;102168.72;4991539;28;19922;-34
2022/05/27 10:23:38;;;;;;;;;;;;;;;21.62;44.63;102166.13;4990441;28;20390;-37
2022/05/27 10:26:19;;;;;;;;;;;;;;;21.52;44.11;102166.53;4991499;28;19945;-31
2022/05/27 10:28:56;;;;;;;;;;;;;;;21.80;46.52;102169.69;4991434;28;20265;-32
2022/05/27 10:31:24;;;;;;;;;;;;;;;21.96;45.17;102171.59;4990578;28;20372;-29
2022/05/27 10:33:54;;;;;;;;;;;;;;;22.08;45.73;102170.03;4991666;28;19925;-32
2022/05/27 10:36:36;;;;;;;;;;;;;;;22.17;43.90;102177.34;4993845;28;19926;-35
2022/05/27 10:39:05;;;;;;;;;;;;;;;22.32;43.73;102165.34;4994738;28;19925;-29
2022/05/27 10:41:40;;;;;;;;;;;;;;;22.29;44.04;102173.72;4995282;28;19925;-33
2022/05/27 10:44:14;;;;;;;;;;;;;;;22.33;44.95;102169.84;4994487;28;19921;-37
2022/05/27 10:46:45;;;;;;;;;;;;;;;22.52;44.20;102177.88;4995294;28;19926;-27
2022/05/27 10:49:21;;;;;;;;;;;;;;;22.77;46.33;102180.81;4995289;28;20355;-32
2022/05/27 10:51:53;;;;;;;;;;;;;;;22.68;42.81;102189.44;4994530;28;20303;-28
2022/05/27 10:54:32;;;;;;;;;;;;;;;22.47;43.00;102192.31;4995119;28;19922;-26
2022/05/27 11:02:56;;;;;;;;;;;;;;;22.21;42.17;102186.81;4992911;28;19925;-29
2022/05/27 11:05:36;;;;;;;;;;;;;;;21.79;42.70;102194.44;4994130;28;20528;-39
2022/05/27 11:08:12;;;;;;;;;;;;;;;21.34;43.07;102184.81;4995018;28;20252;-29
2022/05/27 11:10:44;;;;;;;;;;;;;;;21.18;46.78;102184.53;4990289;28;20244;-34
2022/05/27 11:16:14;;;;;;;;;;;;;;;21.78;46.60;102195.59;4994522;28;19929;-34
2022/05/27 11:18:54;;;;;;;;;;;;;;;21.83;44.13;102192.56;4994705;28;19930;-28
2022/05/27 11:21:33;;;;;;;;;;;;;;;21.65;44.18;102199.53;4993948;28;20415;-28
2022/05/27 11:24:24;;;;;;;;;;;;;;;21.52;47.25;102194.94;4994413;28;19921;-33
2022/05/27 11:26:57;;;;;;;;;;;;;;;21.41;45.57;102205.81;4993916;28;19925;-33
2022/05/27 11:29:44;;;;;;;;;;;;;;;21.21;45.56;102198.03;4994547;28;19929;-29
2022/05/27 11:32:25;;;;;;;;;;;;;;;21.03;47.31;102197.22;4994221;28;20470;-32
2022/05/27 11:34:59;;;;;;;;;;;;;;;21.07;48.16;102200.22;4993915;28;19929;-27
2022/05/27 11:37:41;;;;;;;;;;;;;;;21.03;47.38;102202.91;4991107;28;19921;-28
2022/05/27 11:40:23;;;;;;;;;;;;;;;20.98;46.72;102203.91;4994254;28;19928;-26
2022/05/27 11:43:08;;;;;;;;;;;;;;;20.89;48.43;102207.94;4993379;28;19922;-28
2022/05/27 11:45:36;;;;;;;;;;;;;;;20.93;46.19;102212.63;4981182;28;19928;-29
2022/05/27 11:48:06;;;;;;;;;;;;;;;20.76;45.81;102215.50;4992432;28;19929;-32
2022/05/27 11:50:54;;;;;;;;;;;;;;;20.51;47.52;102207.81;4994052;28;19922;-28
2022/05/27 11:53:28;;;;;;;;;;;;;;;20.21;48.27;102204.78;4983790;28;19925;-28
2022/05/27 11:56:05;;;;;;;;;;;;;;;19.95;49.20;102206.75;4983760;28;19929;-29
2022/05/27 11:58:42;;;;;;;;;;;;;;;19.65;48.76;102205.66;4994017;28;19945;-29
2022/05/27 12:01:12;;;;;;;;;;;;;;;19.54;52.12;102207.97;4993905;28;19922;-28
2022/05/27 12:03:44;;;;;;;;;;;;;;;19.76;51.43;102207.03;4993512;28;19921;-36
2022/05/27 12:06:15;;;;;;;;;;;;;;;20.08;50.42;102208.59;4983433;28;19971;-28
2022/05/27 12:08:49;;;;;;;;;;;;;;;20.10;48.60;102211.09;4993035;28;19930;-34
2022/05/27 12:11:21;;;;;;;;;;;;;;;19.94;51.07;102217.25;4993712;28;19930;-31
2022/05/27 12:13:51;;;;;;;;;;;;;;;19.88;50.36;102212.88;4993966;28;20299;-32
2022/05/27 12:16:19;;;;;;;;;;;;;;;19.97;52.55;102212.91;4992635;28;19921;-28
2022/05/27 12:18:48;;;;;;;;;;;;;;;20.10;50.82;102217.59;4993596;28;20376;-33
2022/05/27 12:21:19;;;;;;;;;;;;;;;20.09;49.20;102215.94;4993642;28;20323;-31
2022/05/27 12:23:51;;;;;;;;;;;;;;;20.08;50.71;102222.78;4991582;28;19925;-28
2022/05/27 12:26:20;;;;;;;;;;;;;;;20.16;50.71;102210.63;4993055;28;19922;-32
2022/05/27 12:28:48;;;;;;;;;;;;;;;20.20;50.06;102213.59;4993256;28;19928;-27
2022/05/27 12:31:15;;;;;;;;;;;;;;;20.16;49.42;102221.13;4992666;28;19933;-28
2022/05/27 12:33:43;;;;;;;;;;;;;;;19.99;48.79;102209.72;4992106;28;20374;-35
2022/05/27 12:36:14;;;;;;;;;;;;;;;19.79;49.29;102228.19;4993309;28;19937;-28
2022/05/27 12:38:44;;;;;;;;;;;;;;;19.82;52.79;102231.19;4992460;28;20016;-27
2022/05/27 12:41:17;;;;;;;;;;;;;;;19.95;51.49;102230.25;4993267;28;19921;-29
2022/05/27 12:43:55;;;;;;;;;;;;;;;19.94;51.22;102227.75;4992523;28;19922;-34
2022/05/27 12:46:29;;;;;;;;;;;;;;;19.84;50.37;102225.19;4993179;28;19954;-35
2022/05/27 12:49:11;;;;;;;;;;;;;;;19.84;50.92;102237.38;4988033;28;19975;-26
2022/05/27 12:51:40;;;;;;;;;;;;;;;19.79;50.98;102231.00;4989094;28;20371;-29
2022/05/27 12:54:07;;;;;;;;;;;;;;;19.61;50.72;102230.97;4992918;28;19945;-33
2022/05/27 13:02:47;;;;;;;;;;;;;;;19.32;52.64;102243.97;4989259;28;19922;-35
2022/05/27 13:05:17;;;;;;;;;;;;;;;19.22;52.76;102245.88;4991811;28;19933;-29
2022/05/27 13:07:49;;;;;;;;;;;;;;;19.19;52.91;102242.88;4992621;28;19926;-29
2022/05/27 13:10:36;;;;;;;;;;;;;;;19.08;52.79;102231.00;4992489;28;19926;-31
2022/05/27 13:13:09;;;;;;;;;;;;;;;18.88;53.89;102246.50;4991965;28;19961;-31